Terminal Aerodrome Forecast
Issued by NWS

Home | Current Version | Previous Version | Text Only | Print | Product List | Glossary On
Versions: 1 2 3 4 5 6 7 8 9 10 11 12 13
352
FTPA31 PHFO 191744
TAFHJR
TAF
PHJR 191744Z 1918/2018 VRB04KT P6SM FEW035
     FM192100 11008KT P6SM FEW040
     FM200400 VRB03KT P6SM FEW035=

USA.gov is the U.S. government's official web portal to all federal, state and local government web resources and services.